createdAt,value
2022-09-23T00:02:21.343Z,3.72
2022-09-23T00:04:48.359Z,4.00
2022-09-23T00:07:16.051Z,3.30
2022-09-23T00:09:47.077Z,2.97
2022-09-23T00:12:18.266Z,3.65
2022-09-23T00:14:45.543Z,3.35
2022-09-23T00:17:15.536Z,3.70
2022-09-23T00:19:42.934Z,3.28
2022-09-23T00:47:01.546Z,3.35
2022-09-23T01:27:32.511Z,1.65
2022-09-23T01:42:12.974Z,1.85
2022-09-23T01:48:43.715Z,1.83
2022-09-23T01:51:46.368Z,1.92
2022-09-23T01:57:24.965Z,1.75
2022-09-23T02:00:26.609Z,3.05
2022-09-23T02:03:05.491Z,1.80
2022-09-23T02:05:51.604Z,2.08
2022-09-23T02:08:42.564Z,2.92
2022-09-23T02:11:18.048Z,2.25
2022-09-23T02:14:08.475Z,2.40
2022-09-23T02:16:44.875Z,2.30
2022-09-23T02:19:25.427Z,2.33
2022-09-23T03:08:56.181Z,1.85
2022-09-23T03:15:02.027Z,1.27
2022-09-23T03:18:06.282Z,1.80
2022-09-23T03:35:47.884Z,2.05
2022-09-23T04:08:59.025Z,1.75
2022-09-23T04:38:53.983Z,1.98
2022-09-23T05:48:54.916Z,3.75
2022-09-23T05:51:30.743Z,4.72
2022-09-23T05:54:08.373Z,3.70
2022-09-23T05:57:04.874Z,3.30
2022-09-23T05:59:35.310Z,3.30
2022-09-23T06:04:36.283Z,3.45
2022-09-23T06:07:03.996Z,3.45
2022-09-23T06:09:36.216Z,3.38
2022-09-23T06:12:05.072Z,2.42
2022-09-23T06:19:05.044Z,2.90
2022-09-23T06:22:12.977Z,2.97
2022-09-23T06:24:40.960Z,3.50
2022-09-23T09:17:05.703Z,1.17
2022-09-23T09:19:58.114Z,1.05
2022-09-23T09:22:37.909Z,1.23
2022-09-23T09:25:44.552Z,1.25
2022-09-23T09:28:16.990Z,1.15
2022-09-23T09:30:48.348Z,0.90
2022-09-23T09:33:17.737Z,1.27
2022-09-23T09:38:36.862Z,0.88
2022-09-23T09:41:17.141Z,0.90
2022-09-23T09:43:48.738Z,0.77
2022-09-23T09:46:37.081Z,0.60
2022-09-23T09:49:22.224Z,0.82
2022-09-23T09:52:11.475Z,0.90
2022-09-23T09:54:39.351Z,0.63
2022-09-23T09:57:44.321Z,1.25
2022-09-23T10:00:26.908Z,0.60
2022-09-23T10:02:55.694Z,0.70
2022-09-23T10:05:31.669Z,0.70
2022-09-23T10:08:18.654Z,1.35
2022-09-23T10:11:00.841Z,0.55
2022-09-23T10:13:29.670Z,0.70
2022-09-23T10:16:00.568Z,0.50
2022-09-23T10:18:48.015Z,0.50
2022-09-23T10:21:16.608Z,0.50
2022-09-23T10:23:52.698Z,0.50
2022-09-23T10:26:39.021Z,0.50
2022-09-23T10:29:24.773Z,0.70
2022-09-23T10:32:13.427Z,0.50
2022-09-23T10:34:43.363Z,0.55
2022-09-23T10:37:15.156Z,0.50
2022-09-23T10:40:00.426Z,0.90
2022-09-23T10:43:10.809Z,0.30
2022-09-23T10:45:59.656Z,0.40
2022-09-23T10:48:29.509Z,0.52
2022-09-23T10:50:58.218Z,0.40
2022-09-23T10:53:59.261Z,0.40
2022-09-23T10:56:34.459Z,0.57
2022-09-23T10:59:11.823Z,0.60
2022-09-23T11:01:39.901Z,0.40
2022-09-23T11:04:37.635Z,0.65
2022-09-23T11:07:07.437Z,0.70
2022-09-23T11:09:34.442Z,0.55
2022-09-23T11:12:26.413Z,0.40
2022-09-23T11:15:16.746Z,0.50
2022-09-23T11:17:48.651Z,0.50
2022-09-23T11:20:40.556Z,0.43
2022-09-23T11:23:13.265Z,0.63
2022-09-23T11:25:56.662Z,0.40
2022-09-23T11:28:45.631Z,0.50
2022-09-23T11:31:21.618Z,0.28
2022-09-23T11:34:10.216Z,0.40
2022-09-23T11:36:40.377Z,0.32
2022-09-23T11:39:19.825Z,0.40
2022-09-23T11:41:46.842Z,0.50
2022-09-23T11:44:23.902Z,0.40
2022-09-23T11:46:55.125Z,0.40
2022-09-23T11:49:37.096Z,0.38
2022-09-23T11:52:20.830Z,0.40
2022-09-23T11:54:52.208Z,0.30
2022-09-23T11:57:49.042Z,0.80
2022-09-23T12:00:23.195Z,0.55
2022-09-23T12:03:06.602Z,0.47
2022-09-23T12:05:44.693Z,0.50
2022-09-23T12:08:26.895Z,0.37
2022-09-23T12:10:59.831Z,0.38
2022-09-23T12:13:40.168Z,0.50
2022-09-23T12:16:29.669Z,0.88
2022-09-23T12:19:24.894Z,0.50
2022-09-23T12:22:25.811Z,0.60
2022-09-23T12:25:28.953Z,3.97
2022-09-23T12:27:56.051Z,21.83
2022-09-23T12:30:27.345Z,2.30
2022-09-23T12:33:06.254Z,0.80
2022-09-23T12:35:41.647Z,0.60
2022-09-23T12:38:33.216Z,0.43
2022-09-23T12:41:00.232Z,0.45
2022-09-23T12:43:35.134Z,0.60
2022-09-23T12:46:28.630Z,1.40
2022-09-23T12:48:58.429Z,0.80
2022-09-23T12:51:29.642Z,0.70
2022-09-23T12:54:14.441Z,0.60
2022-09-23T12:56:42.328Z,0.88
2022-09-23T12:59:23.966Z,0.80
2022-09-23T13:01:51.081Z,0.60
2022-09-23T13:04:47.651Z,0.60
2022-09-23T13:07:16.715Z,0.85
2022-09-23T13:09:48.873Z,0.70
2022-09-23T13:12:25.938Z,0.80
2022-09-23T13:14:54.463Z,0.90
2022-09-23T13:17:48.351Z,1.00
2022-09-23T13:20:21.401Z,0.77
2022-09-23T13:22:54.133Z,4.53
2022-09-23T13:25:23.331Z,0.90
2022-09-23T13:27:52.448Z,1.55
2022-09-23T13:30:26.520Z,1.02
2022-09-23T13:33:02.861Z,5.28
2022-09-23T13:35:52.797Z,2.80
2022-09-23T13:38:26.286Z,2.67
2022-09-23T13:41:17.195Z,1.17
2022-09-23T13:44:00.620Z,0.95
2022-09-23T13:46:34.624Z,2.53
2022-09-23T13:49:02.890Z,1.52
2022-09-23T13:51:38.903Z,5.38
2022-09-23T13:54:05.954Z,0.80
2022-09-23T13:56:33.561Z,4.03
2022-09-23T13:59:26.621Z,2.60
2022-09-23T14:02:10.985Z,1.08
2022-09-23T14:04:38.379Z,1.20
2022-09-23T14:07:06.960Z,0.88
2022-09-23T14:09:34.346Z,1.92
2022-09-23T14:12:10.091Z,1.40
2022-09-23T14:14:38.527Z,0.75
2022-09-23T14:17:06.194Z,0.80
2022-09-23T14:19:33.210Z,0.80
2022-09-23T14:22:00.569Z,0.80
2022-09-23T14:24:33.614Z,1.20
2022-09-23T14:27:06.595Z,0.68
2022-09-23T14:29:40.049Z,0.95
2022-09-23T14:32:21.261Z,1.45
2022-09-23T14:35:01.228Z,1.27
2022-09-23T14:38:01.858Z,1.70
2022-09-23T14:40:29.793Z,2.08
2022-09-23T14:43:05.792Z,1.70
2022-09-23T14:45:35.625Z,0.90
2022-09-23T14:48:08.023Z,1.30
2022-09-23T14:50:40.103Z,1.70
2022-09-23T14:53:31.439Z,1.70
2022-09-23T14:56:20.105Z,1.20
2022-09-23T14:58:54.114Z,1.00
2022-09-23T15:01:25.023Z,0.80
2022-09-23T15:03:52.784Z,0.90
2022-09-23T15:06:20.967Z,0.65
2022-09-23T15:08:48.418Z,0.60
2022-09-23T15:11:15.752Z,0.52
2022-09-23T15:13:45.899Z,0.52
2022-09-23T15:16:14.573Z,0.88
2022-09-23T15:18:43.631Z,0.55
2022-09-23T15:23:44.614Z,0.68
2022-09-23T15:26:16.808Z,0.50
2022-09-23T15:28:44.676Z,0.80
2022-09-23T15:31:12.831Z,1.40
2022-09-23T15:33:40.043Z,2.00
2022-09-23T15:36:06.968Z,0.80
2022-09-23T15:38:33.993Z,0.63
2022-09-23T15:41:00.990Z,1.83
2022-09-23T15:43:28.196Z,28.73
2022-09-23T15:45:58.916Z,10.60
2022-09-23T15:48:32.808Z,9.10
2022-09-23T15:51:04.030Z,6.57
2022-09-23T15:53:31.610Z,6.50
2022-09-23T15:55:58.972Z,9.25
2022-09-23T15:58:28.955Z,10.73
2022-09-23T16:00:57.449Z,7.75
2022-09-23T16:03:30.738Z,9.85
2022-09-23T16:06:02.699Z,10.27
2022-09-23T16:08:30.306Z,10.88
2022-09-23T16:10:57.503Z,16.40
2022-09-23T16:13:24.486Z,17.98
2022-09-23T16:15:51.514Z,21.48
2022-09-23T16:18:18.879Z,22.80
2022-09-23T16:20:46.359Z,27.75
2022-09-23T16:23:34.959Z,27.00
2022-09-23T16:26:14.122Z,29.08
2022-09-23T16:31:08.273Z,6.82
2022-09-23T16:33:36.781Z,15.20
2022-09-23T16:36:04.761Z,15.27
2022-09-23T16:38:32.996Z,11.25
2022-09-23T16:41:00.937Z,28.17
2022-09-23T16:43:31.819Z,20.65
2022-09-23T16:45:59.022Z,27.05
2022-09-23T16:48:26.120Z,23.38
2022-09-23T16:53:59.962Z,12.13
2022-09-23T16:56:29.427Z,18.85
2022-09-23T16:59:20.053Z,13.13
2022-09-23T17:02:15.408Z,18.80
2022-09-23T17:11:14.516Z,51.03
2022-09-23T17:13:42.642Z,24.20
2022-09-23T17:16:25.914Z,11.73
2022-09-23T17:19:13.182Z,4.50
2022-09-23T17:21:45.195Z,5.90
2022-09-23T17:24:12.844Z,7.10
2022-09-23T17:29:44.850Z,12.55
2022-09-23T17:32:14.063Z,15.02
2022-09-23T17:34:50.476Z,89.35
2022-09-23T17:43:08.869Z,10.50
2022-09-23T17:45:38.968Z,15.38
2022-09-23T17:48:06.153Z,38.50
2022-09-23T17:54:16.739Z,21.00
2022-09-23T17:56:43.816Z,22.13
2022-09-23T17:59:20.272Z,28.05
2022-09-23T18:01:50.835Z,22.40
2022-09-23T18:04:21.812Z,24.77
2022-09-23T18:06:49.536Z,25.75
2022-09-23T18:09:23.053Z,17.23
2022-09-23T18:14:25.579Z,13.00
2022-09-23T18:16:54.213Z,14.57
2022-09-23T18:19:22.179Z,15.48
2022-09-23T18:21:52.688Z,17.98
2022-09-23T18:24:35.476Z,17.48
2022-09-23T18:27:02.605Z,28.15
2022-09-23T18:29:29.680Z,20.00
2022-09-23T18:31:56.734Z,22.70
2022-09-23T18:34:23.874Z,21.55
2022-09-23T18:36:51.304Z,18.23
2022-09-23T18:39:18.293Z,17.35
2022-09-23T18:51:58.006Z,9.13
2022-09-23T18:54:26.263Z,31.38
2022-09-23T18:56:54.166Z,34.23
2022-09-23T18:59:25.170Z,33.67
2022-09-23T19:01:55.707Z,36.85
2022-09-23T19:07:20.882Z,14.90
2022-09-23T19:09:48.915Z,20.23
2022-09-23T19:19:07.901Z,15.43
2022-09-23T19:24:57.536Z,20.08
2022-09-23T19:27:27.493Z,19.23
2022-09-23T19:29:55.192Z,14.00
2022-09-23T19:32:27.261Z,14.75
2022-09-23T19:34:57.234Z,13.00
2022-09-23T19:37:27.412Z,12.40
2022-09-23T19:39:55.471Z,13.85
2022-09-23T19:42:23.282Z,13.32
2022-09-23T19:44:51.621Z,13.25
2022-09-23T19:47:18.683Z,13.80
2022-09-23T19:49:45.661Z,12.90
2022-09-23T19:52:15.941Z,12.48
2022-09-23T19:54:42.917Z,12.35
2022-09-23T19:57:09.949Z,10.25
2022-09-23T19:59:36.953Z,11.77
2022-09-23T20:02:04.874Z,13.02
2022-09-23T20:04:33.175Z,11.63
2022-09-23T20:07:00.239Z,11.20
2022-09-23T20:09:29.352Z,14.57
2022-09-23T20:14:27.402Z,11.52
2022-09-23T21:02:41.190Z,8.63
2022-09-23T21:05:14.162Z,16.15
2022-09-23T23:20:38.483Z,6.35
2022-09-23T23:32:43.468Z,4.80
2022-09-23T23:35:23.667Z,4.13
2022-09-23T23:37:52.857Z,4.40
